Time;durP1;ratioP1;P1;durP2;ratioP2;P2;SDS_P1;SDS_P2;PMS_P1;PMS_P2;Temp;Humidity;BMP_temperature;BMP_pressure;BME280_temperature;BME280_humidity;BME280_pressure;Samples;Min_cycle;Max_cycle;Signal;HPM_P1;HPM_P2
2022/05/18 00:00:00;;;;;;;;;;;17.70;99.90;;;;;;5015398;28;19925;-74
2022/05/18 00:02:26;;;;;;;;;;;17.70;99.90;;;;;;5014560;28;19971;-74
2022/05/18 00:04:51;;;;;;;;;;;17.70;99.90;;;;;;5015272;28;19925;-74
2022/05/18 00:07:17;;;;;;;;;;;17.60;99.90;;;;;;5016184;28;19937;-73
2022/05/18 00:09:42;;;;;;;;;;;17.60;99.90;;;;;;5016072;28;19931;-74
2022/05/18 00:12:09;;;;;;;;;;;17.60;99.90;;;;;;5015297;28;19933;-74
2022/05/18 00:14:34;;;;;;;;;;;17.60;99.90;;;;;;4998274;28;19926;-73
2022/05/18 00:17:03;;;;;;;;;;;17.60;99.90;;;;;;4998092;28;19948;-73
2022/05/18 00:19:29;;;;;;;;;;;17.50;99.90;;;;;;4996950;28;19968;-74
2022/05/18 00:21:56;;;;;;;;;;;17.50;99.90;;;;;;5015296;28;19932;-74
2022/05/18 00:24:21;;;;;;;;;;;17.50;99.90;;;;;;4998039;28;20025;-74
2022/05/18 00:26:47;;;;;;;;;;;17.50;99.90;;;;;;4997304;28;19972;-74
2022/05/18 00:29:13;;;;;;;;;;;17.40;99.90;;;;;;5015621;28;19957;-74
2022/05/18 00:31:39;;;;;;;;;;;17.90;99.90;;;;;;5015308;28;19921;-74
2022/05/18 00:34:05;;;;;;;;;;;17.40;99.90;;;;;;4996775;28;19940;-74
2022/05/18 00:36:30;;;;;;;;;;;17.30;99.90;;;;;;4998291;28;19930;-74
2022/05/18 00:39:02;;;;;;;;;;;17.30;99.90;;;;;;4995985;28;19979;-73
2022/05/18 00:41:27;;;;;;;;;;;17.20;99.90;;;;;;4996806;28;20443;-74
2022/05/18 00:43:54;;;;;;;;;;;17.10;99.90;;;;;;5015473;28;19930;-74
2022/05/18 00:46:20;;;;;;;;;;;17.00;99.90;;;;;;4997046;28;19929;-73
2022/05/18 00:48:45;;;;;;;;;;;17.00;99.90;;;;;;4997461;28;20456;-73
2022/05/18 00:51:23;;;;;;;;;;;16.90;99.90;;;;;;4995264;28;19932;-74
2022/05/18 00:53:53;;;;;;;;;;;16.80;99.90;;;;;;4995077;28;19940;-74
2022/05/18 00:56:21;;;;;;;;;;;16.80;99.90;;;;;;5014199;28;20333;-73
2022/05/18 00:58:53;;;;;;;;;;;16.80;99.90;;;;;;4997461;28;19929;-74
2022/05/18 01:01:18;;;;;;;;;;;16.70;99.90;;;;;;5013811;28;20361;-73
2022/05/18 01:03:46;;;;;;;;;;;16.70;99.90;;;;;;4997488;28;20020;-73
2022/05/18 01:06:16;;;;;;;;;;;16.80;99.90;;;;;;4996247;28;19925;-74
2022/05/18 01:08:45;;;;;;;;;;;16.70;99.90;;;;;;5014543;28;19931;-73
2022/05/18 01:11:11;;;;;;;;;;;16.70;99.90;;;;;;4997725;28;20436;-73
2022/05/18 01:13:36;;;;;;;;;;;16.60;99.90;;;;;;4997739;28;19925;-73
2022/05/18 01:16:02;;;;;;;;;;;16.60;99.90;;;;;;4996796;28;20272;-73
2022/05/18 01:18:28;;;;;;;;;;;16.60;99.90;;;;;;5014567;28;20416;-73
2022/05/18 01:20:54;;;;;;;;;;;16.60;99.90;;;;;;5015369;28;19971;-73
2022/05/18 01:23:24;;;;;;;;;;;16.50;99.90;;;;;;5014269;28;20024;-73
2022/05/18 01:26:09;;;;;;;;;;;16.50;99.90;;;;;;5014597;28;19953;-74
2022/05/18 01:28:36;;;;;;;;;;;16.60;99.90;;;;;;5014524;28;19976;-73
2022/05/18 01:31:04;;;;;;;;;;;16.50;99.90;;;;;;4996473;28;20455;-73
2022/05/18 01:33:30;;;;;;;;;;;16.50;99.90;;;;;;5014199;28;19925;-73
2022/05/18 01:35:56;;;;;;;;;;;16.60;99.90;;;;;;4997033;28;20385;-73
2022/05/18 01:38:21;;;;;;;;;;;16.50;99.90;;;;;;5014317;28;20064;-74
2022/05/18 01:41:02;;;;;;;;;;;16.50;99.90;;;;;;4997310;28;20048;-73
2022/05/18 01:43:34;;;;;;;;;;;16.50;99.90;;;;;;4996591;28;19929;-74
2022/05/18 01:46:00;;;;;;;;;;;16.40;99.90;;;;;;5017142;28;19925;-73
2022/05/18 01:48:28;;;;;;;;;;;16.40;99.90;;;;;;5018734;28;20373;-73
2022/05/18 01:50:54;;;;;;;;;;;16.30;99.90;;;;;;5018355;28;19930;-73
2022/05/18 01:53:22;;;;;;;;;;;16.30;99.90;;;;;;5018364;28;19925;-73
2022/05/18 01:55:48;;;;;;;;;;;16.50;99.90;;;;;;5017847;28;20024;-72
2022/05/18 01:58:14;;;;;;;;;;;16.40;99.90;;;;;;5016407;28;20040;-73
2022/05/18 02:00:40;;;;;;;;;;;16.20;99.90;;;;;;5018292;28;20457;-73
2022/05/18 02:03:05;;;;;;;;;;;16.20;99.90;;;;;;5017195;28;20399;-73
2022/05/18 02:05:31;;;;;;;;;;;16.10;99.90;;;;;;5000569;28;19925;-73
2022/05/18 02:07:57;;;;;;;;;;;16.10;99.90;;;;;;5018740;28;19921;-74
2022/05/18 02:10:23;;;;;;;;;;;16.10;99.90;;;;;;5017522;28;19925;-74
2022/05/18 02:12:49;;;;;;;;;;;16.20;99.90;;;;;;5017427;28;19936;-73
2022/05/18 02:15:14;;;;;;;;;;;16.60;99.90;;;;;;5017664;28;19921;-74
2022/05/18 02:17:40;;;;;;;;;;;16.00;99.90;;;;;;5016993;28;19933;-73
2022/05/18 02:20:08;;;;;;;;;;;16.00;99.90;;;;;;5000528;28;19925;-73
2022/05/18 02:22:34;;;;;;;;;;;15.90;99.90;;;;;;5000819;28;19929;-73
2022/05/18 02:25:03;;;;;;;;;;;15.80;99.90;;;;;;5017476;28;19932;-73
2022/05/18 02:27:29;;;;;;;;;;;15.80;99.90;;;;;;5000110;28;20369;-73
2022/05/18 02:29:55;;;;;;;;;;;15.80;99.90;;;;;;5017580;28;19925;-73
2022/05/18 02:32:20;;;;;;;;;;;15.70;99.90;;;;;;5016403;28;20333;-73
2022/05/18 02:34:46;;;;;;;;;;;15.70;99.90;;;;;;4999470;28;19929;-73
2022/05/18 02:37:14;;;;;;;;;;;15.60;99.90;;;;;;4998934;28;20400;-73
2022/05/18 02:39:40;;;;;;;;;;;15.70;99.90;;;;;;5015292;28;19933;-73
2022/05/18 02:42:05;;;;;;;;;;;15.60;99.90;;;;;;5016590;28;19925;-74
2022/05/18 02:44:31;;;;;;;;;;;15.50;99.90;;;;;;5000234;28;19906;-74
2022/05/18 02:46:57;;;;;;;;;;;15.60;99.90;;;;;;4999229;28;19926;-74
2022/05/18 02:49:26;;;;;;;;;;;15.60;99.90;;;;;;5031745;28;19921;-75
2022/05/18 02:51:51;;;;;;;;;;;15.60;99.90;;;;;;4998878;28;19965;-73
2022/05/18 02:57:02;;;;;;;;;;;15.40;99.90;;;;;;5016440;28;20404;-73
2022/05/18 02:59:28;;;;;;;;;;;15.40;99.90;;;;;;4998225;28;20257;-73
2022/05/18 03:01:53;;;;;;;;;;;15.40;99.90;;;;;;5017333;28;20262;-73
2022/05/18 03:04:19;;;;;;;;;;;15.40;99.90;;;;;;4999645;28;19952;-73
2022/05/18 03:06:47;;;;;;;;;;;15.40;99.90;;;;;;4998940;28;19925;-73
2022/05/18 03:09:13;;;;;;;;;;;15.40;99.90;;;;;;4999824;28;20288;-74
2022/05/18 03:11:38;;;;;;;;;;;15.30;99.90;;;;;;4999554;28;19929;-73
2022/05/18 03:14:04;;;;;;;;;;;15.20;99.90;;;;;;4997879;28;19971;-73
2022/05/18 03:16:30;;;;;;;;;;;15.20;99.90;;;;;;4998850;28;19925;-73
2022/05/18 03:18:59;;;;;;;;;;;15.20;99.90;;;;;;4999692;28;19965;-73
2022/05/18 03:24:10;;;;;;;;;;;15.20;99.90;;;;;;5016662;28;19957;-74
2022/05/18 03:26:36;;;;;;;;;;;15.10;99.90;;;;;;5017325;28;20044;-73
2022/05/18 03:29:02;;;;;;;;;;;15.10;99.90;;;;;;4998619;28;20321;-73
2022/05/18 03:31:27;;;;;;;;;;;15.10;99.90;;;;;;4999372;28;19999;-73
2022/05/18 03:33:55;;;;;;;;;;;15.10;99.90;;;;;;5016327;28;19926;-73
2022/05/18 03:36:20;;;;;;;;;;;15.10;99.90;;;;;;4997895;28;20361;-73
2022/05/18 03:38:47;;;;;;;;;;;15.10;99.90;;;;;;4998447;28;19936;-73
2022/05/18 03:41:13;;;;;;;;;;;15.10;99.90;;;;;;4996968;28;19925;-73
2022/05/18 03:43:38;;;;;;;;;;;15.20;99.90;;;;;;5015072;28;19972;-73
2022/05/18 03:46:05;;;;;;;;;;;15.10;99.90;;;;;;4998983;28;19925;-73
2022/05/18 03:48:31;;;;;;;;;;;15.10;99.90;;;;;;4998829;28;19916;-74
2022/05/18 03:50:58;;;;;;;;;;;15.20;99.90;;;;;;4995775;28;20016;-73
2022/05/18 03:53:24;;;;;;;;;;;15.20;99.90;;;;;;4998044;28;19925;-74
2022/05/18 03:55:50;;;;;;;;;;;15.30;99.90;;;;;;5014797;28;19925;-73
2022/05/18 03:58:16;;;;;;;;;;;15.30;99.90;;;;;;5014368;28;20017;-73
2022/05/18 04:00:43;;;;;;;;;;;15.40;99.90;;;;;;5015694;28;19980;-73
2022/05/18 04:03:10;;;;;;;;;;;15.50;99.90;;;;;;4996851;28;19972;-73
2022/05/18 04:05:37;;;;;;;;;;;15.50;99.90;;;;;;4998337;28;20008;-73
2022/05/18 04:08:04;;;;;;;;;;;15.60;99.90;;;;;;4997546;28;20289;-73
2022/05/18 04:10:30;;;;;;;;;;;15.60;99.90;;;;;;5014462;28;19925;-73
2022/05/18 04:12:55;;;;;;;;;;;15.60;99.90;;;;;;5019260;28;20339;-74
2022/05/18 04:15:27;;;;;;;;;;;15.60;99.90;;;;;;4998824;28;19921;-73
2022/05/18 04:17:53;;;;;;;;;;;15.70;99.90;;;;;;4996766;28;19932;-73
2022/05/18 04:20:20;;;;;;;;;;;15.70;99.90;;;;;;4995714;28;19929;-73
2022/05/18 04:22:47;;;;;;;;;;;15.70;99.90;;;;;;4995177;28;20067;-73
2022/05/18 04:25:14;;;;;;;;;;;15.70;99.90;;;;;;4994234;28;20012;-73
2022/05/18 04:27:39;;;;;;;;;;;15.80;99.90;;;;;;4996355;28;19925;-73
2022/05/18 04:30:05;;;;;;;;;;;16.00;99.90;;;;;;4997132;28;19931;-73
2022/05/18 04:32:30;;;;;;;;;;;15.90;99.90;;;;;;5014505;28;19925;-73
2022/05/18 04:34:56;;;;;;;;;;;16.00;99.90;;;;;;5014966;28;19988;-73
2022/05/18 04:37:21;;;;;;;;;;;16.50;99.90;;;;;;4997565;28;19926;-73
2022/05/18 04:39:47;;;;;;;;;;;15.90;99.90;;;;;;5014692;28;19931;-74
2022/05/18 04:42:13;;;;;;;;;;;15.90;99.90;;;;;;5015049;28;19932;-73
2022/05/18 04:44:39;;;;;;;;;;;16.00;99.90;;;;;;5015339;28;19984;-74
2022/05/18 04:47:05;;;;;;;;;;;15.90;99.90;;;;;;4996615;28;20369;-73
2022/05/18 04:49:32;;;;;;;;;;;15.90;99.90;;;;;;4997300;28;19934;-74
2022/05/18 04:51:58;;;;;;;;;;;15.80;99.90;;;;;;4997448;28;19930;-73
2022/05/18 04:54:24;;;;;;;;;;;15.80;99.90;;;;;;4996211;28;19932;-73
2022/05/18 04:56:49;;;;;;;;;;;15.80;99.90;;;;;;4997296;28;19909;-73
2022/05/18 04:59:15;;;;;;;;;;;15.70;99.90;;;;;;4992768;28;19972;-73
2022/05/18 05:01:42;;;;;;;;;;;15.70;99.90;;;;;;4995494;28;19980;-73
2022/05/18 05:04:09;;;;;;;;;;;15.80;99.90;;;;;;4992930;28;19977;-74
2022/05/18 05:06:39;;;;;;;;;;;15.80;99.90;;;;;;4994629;28;19948;-74
2022/05/18 05:09:05;;;;;;;;;;;15.80;99.90;;;;;;4994741;28;20403;-70
2022/05/18 05:11:30;;;;;;;;;;;15.80;99.90;;;;;;4994548;28;20017;-74
2022/05/18 05:13:56;;;;;;;;;;;15.80;99.90;;;;;;4993298;28;19930;-71
2022/05/18 05:16:22;;;;;;;;;;;15.90;99.90;;;;;;4991932;28;19996;-72
2022/05/18 05:18:47;;;;;;;;;;;15.90;99.90;;;;;;4993615;28;20196;-71
2022/05/18 05:21:16;;;;;;;;;;;16.10;99.90;;;;;;4995896;28;19926;-70
2022/05/18 05:23:41;;;;;;;;;;;16.10;99.90;;;;;;4997342;28;19992;-75
2022/05/18 05:26:07;;;;;;;;;;;16.30;99.90;;;;;;4998707;28;19996;-74
2022/05/18 05:28:32;;;;;;;;;;;16.40;99.90;;;;;;4997076;28;19926;-71
2022/05/18 05:31:05;;;;;;;;;;;16.30;99.90;;;;;;5000023;28;19929;-76
2022/05/18 05:33:31;;;;;;;;;;;16.40;99.90;;;;;;4999076;28;19922;-74
2022/05/18 05:35:57;;;;;;;;;;;16.60;99.90;;;;;;4997170;28;19937;-72
2022/05/18 05:38:23;;;;;;;;;;;16.70;99.90;;;;;;4994601;28;19962;-73
2022/05/18 05:40:48;;;;;;;;;;;16.80;99.90;;;;;;4999189;28;20160;-70
2022/05/18 05:43:14;;;;;;;;;;;16.70;99.90;;;;;;4995700;28;19925;-69
2022/05/18 05:45:39;;;;;;;;;;;16.80;99.90;;;;;;4997516;28;20016;-70
2022/05/18 05:48:06;;;;;;;;;;;16.90;99.90;;;;;;4996547;28;19972;-71
2022/05/18 05:50:32;;;;;;;;;;;16.90;99.90;;;;;;4996863;28;20016;-72
2022/05/18 05:52:58;;;;;;;;;;;16.90;99.90;;;;;;4998487;28;19933;-70
2022/05/18 05:55:24;;;;;;;;;;;16.90;99.90;;;;;;4994576;28;19926;-70
2022/05/18 05:57:51;;;;;;;;;;;17.00;99.90;;;;;;5022732;28;19925;-71
2022/05/18 06:00:17;;;;;;;;;;;17.10;99.90;;;;;;5016325;28;20040;-70
2022/05/18 06:02:44;;;;;;;;;;;17.20;99.90;;;;;;5016747;28;19956;-70
2022/05/18 06:05:09;;;;;;;;;;;17.30;99.90;;;;;;4998681;28;19973;-71
2022/05/18 06:07:35;;;;;;;;;;;17.40;99.90;;;;;;5017178;28;20003;-69
2022/05/18 06:10:00;;;;;;;;;;;17.40;99.90;;;;;;4998125;28;19926;-73
2022/05/18 06:12:26;;;;;;;;;;;17.50;99.90;;;;;;4999756;28;19999;-70
2022/05/18 06:14:52;;;;;;;;;;;17.60;99.90;;;;;;5017400;28;19926;-74
2022/05/18 06:17:17;;;;;;;;;;;17.80;99.90;;;;;;5016100;28;19925;-71
2022/05/18 06:19:43;;;;;;;;;;;17.80;99.90;;;;;;5000475;28;19979;-71
2022/05/18 06:22:11;;;;;;;;;;;18.00;99.90;;;;;;5017454;28;20008;-70
2022/05/18 06:24:37;;;;;;;;;;;17.90;99.90;;;;;;5016210;28;20360;-71
2022/05/18 06:27:02;;;;;;;;;;;18.10;99.90;;;;;;4999800;28;19925;-76
2022/05/18 06:29:28;;;;;;;;;;;18.10;99.90;;;;;;4999919;28;19933;-75
2022/05/18 06:31:54;;;;;;;;;;;18.20;99.90;;;;;;5017147;28;19936;-74
2022/05/18 06:34:21;;;;;;;;;;;18.40;99.90;;;;;;5016588;28;20341;-74
2022/05/18 06:36:49;;;;;;;;;;;18.50;99.90;;;;;;5018419;28;20373;-75
2022/05/18 06:39:18;;;;;;;;;;;19.30;99.90;;;;;;4998895;28;19925;-76
2022/05/18 06:41:46;;;;;;;;;;;18.70;99.90;;;;;;4999497;28;19984;-75
2022/05/18 06:44:12;;;;;;;;;;;18.90;99.90;;;;;;4996726;28;19933;-75
2022/05/18 06:46:41;;;;;;;;;;;18.90;99.90;;;;;;5016929;28;19929;-78
2022/05/18 06:49:08;;;;;;;;;;;19.00;99.90;;;;;;5017333;28;19929;-76
2022/05/18 06:51:39;;;;;;;;;;;19.90;99.90;;;;;;5019097;28;20403;-76
2022/05/18 06:54:05;;;;;;;;;;;19.10;99.90;;;;;;5017543;28;19925;-75
2022/05/18 06:56:33;;;;;;;;;;;19.20;99.90;;;;;;4999969;28;19968;-73
2022/05/18 06:58:59;;;;;;;;;;;19.20;99.90;;;;;;5015338;28;20622;-75
2022/05/18 07:01:27;;;;;;;;;;;19.50;99.90;;;;;;4999261;28;20407;-74
2022/05/18 07:03:52;;;;;;;;;;;19.60;99.90;;;;;;5017357;28;19971;-73
2022/05/18 07:06:20;;;;;;;;;;;19.70;99.90;;;;;;5016654;28;20249;-73
2022/05/18 07:08:46;;;;;;;;;;;19.80;99.90;;;;;;5017841;28;19929;-73
2022/05/18 07:11:12;;;;;;;;;;;20.00;99.90;;;;;;5033031;28;19925;-74
2022/05/18 07:13:38;;;;;;;;;;;20.20;99.90;;;;;;5015991;28;20404;-74
2022/05/18 07:16:04;;;;;;;;;;;20.40;99.90;;;;;;5016583;28;20017;-71
2022/05/18 07:18:30;;;;;;;;;;;20.50;99.90;;;;;;5017858;28;19926;-76
2022/05/18 07:21:16;;;;;;;;;;;20.70;99.90;;;;;;4998686;28;19926;-76
2022/05/18 07:23:42;;;;;;;;;;;21.10;99.90;;;;;;4998207;28;20377;-81
2022/05/18 07:26:07;;;;;;;;;;;21.90;99.90;;;;;;4997948;28;20188;-81
2022/05/18 07:28:33;;;;;;;;;;;22.40;99.90;;;;;;5014846;28;19976;-81
2022/05/18 07:30:58;;;;;;;;;;;22.90;99.90;;;;;;4999304;28;19925;-80
2022/05/18 07:33:25;;;;;;;;;;;24.00;99.90;;;;;;5017115;28;19926;-80
2022/05/18 07:35:51;;;;;;;;;;;24.10;99.90;;;;;;4998227;28;19971;-80
2022/05/18 08:26:49;;;;;;;;;;;29.20;92.30;;;;;;5805751;23;19925;-77
2022/05/18 08:32:30;;;;;;;;;;;29.10;92.30;;;;;;4974891;28;19969;-76
2022/05/18 08:34:56;;;;;;;;;;;28.50;92.70;;;;;;4985694;28;19929;-71
2022/05/18 08:37:22;;;;;;;;;;;28.30;92.20;;;;;;4994695;28;20350;-71
2022/05/18 08:39:49;;;;;;;;;;;28.50;92.20;;;;;;4994445;28;19933;-72
2022/05/18 08:42:20;;;;;;;;;;;28.80;92.10;;;;;;5004734;28;19925;-72
2022/05/18 08:44:47;;;;;;;;;;;29.20;92.20;;;;;;5013289;28;20421;-71
2022/05/18 08:47:16;;;;;;;;;;;29.70;91.40;;;;;;5014426;28;19926;-72
2022/05/18 08:49:45;;;;;;;;;;;29.90;91.20;;;;;;5015241;28;19926;-73
2022/05/18 08:52:22;;;;;;;;;;;30.10;91.30;;;;;;5014016;28;19952;-73
2022/05/18 08:54:53;;;;;;;;;;;30.40;90.90;;;;;;5013996;28;19933;-73
2022/05/18 08:57:20;;;;;;;;;;;30.70;90.20;;;;;;5013945;28;20372;-74
2022/05/18 08:59:47;;;;;;;;;;;30.90;90.00;;;;;;5001742;28;20458;-73
2022/05/18 09:02:17;;;;;;;;;;;31.20;89.90;;;;;;4995187;28;19972;-73
2022/05/18 09:04:54;;;;;;;;;;;30.20;89.90;;;;;;4995632;28;19926;-73
2022/05/18 09:07:22;;;;;;;;;;;29.60;91.00;;;;;;4999892;28;20456;-72
2022/05/18 09:12:37;;;;;;;;;;;28.40;92.20;;;;;;5013620;28;19945;-74
2022/05/18 09:15:04;;;;;;;;;;;27.90;92.70;;;;;;5013732;28;19929;-71
2022/05/18 09:17:58;;;;;;;;;;;27.90;93.00;;;;;;5006874;28;19970;-73
2022/05/18 09:20:31;;;;;;;;;;;27.70;93.30;;;;;;4995061;28;19933;-70
2022/05/18 09:22:56;;;;;;;;;;;27.40;93.70;;;;;;5007133;28;19950;-71
2022/05/18 09:25:43;;;;;;;;;;;27.20;93.80;;;;;;4994246;28;20015;-69
2022/05/18 09:28:27;;;;;;;;;;;27.10;94.30;;;;;;5001891;28;19926;-70
2022/05/18 09:31:11;;;;;;;;;;;27.00;94.40;;;;;;5013049;28;19932;-70
2022/05/18 09:33:42;;;;;;;;;;;27.10;94.20;;;;;;5012082;28;19935;-69
2022/05/18 09:36:27;;;;;;;;;;;26.90;93.80;;;;;;5011272;28;19926;-70
2022/05/18 09:39:04;;;;;;;;;;;27.10;94.20;;;;;;5010587;28;20020;-69
2022/05/18 09:41:37;;;;;;;;;;;27.40;93.90;;;;;;4996103;28;20076;-69
2022/05/18 09:44:28;;;;;;;;;;;27.00;93.50;;;;;;4993297;28;20045;-70
2022/05/18 09:46:58;;;;;;;;;;;26.70;93.60;;;;;;4990253;28;20378;-70
2022/05/18 09:49:37;;;;;;;;;;;26.60;93.50;;;;;;4993264;28;19969;-70
2022/05/18 09:52:04;;;;;;;;;;;26.90;93.50;;;;;;4994796;28;20274;-71
2022/05/18 09:54:30;;;;;;;;;;;27.30;93.50;;;;;;5001728;28;19925;-71
2022/05/18 09:56:59;;;;;;;;;;;27.60;92.40;;;;;;5014457;28;19925;-73
2022/05/18 09:59:28;;;;;;;;;;;27.50;92.30;;;;;;5008495;28;19926;-70
2022/05/18 10:10:00;;;;;;;;;;;29.30;91.10;;;;;;4997451;28;19914;-72
2022/05/18 10:12:31;;;;;;;;;;;29.50;91.40;;;;;;5015476;28;19930;-72
2022/05/18 10:15:03;;;;;;;;;;;29.00;90.60;;;;;;5018533;28;19929;-72
2022/05/18 10:17:34;;;;;;;;;;;28.70;91.20;;;;;;5016489;28;19936;-75
2022/05/18 10:20:06;;;;;;;;;;;28.00;91.20;;;;;;5018296;28;19925;-74
2022/05/18 10:25:50;;;;;;;;;;;27.20;92.40;;;;;;5008624;28;19932;-73
2022/05/18 10:28:40;;;;;;;;;;;26.90;92.20;;;;;;5016687;28;19925;-73
2022/05/18 10:31:22;;;;;;;;;;;26.60;92.80;;;;;;5016643;28;19925;-73
2022/05/18 10:33:47;;;;;;;;;;;26.50;93.00;;;;;;5015002;28;20266;-73
2022/05/18 10:36:14;;;;;;;;;;;26.40;93.70;;;;;;4996760;28;20388;-72
2022/05/18 10:38:53;;;;;;;;;;;26.70;93.70;;;;;;4996055;28;20024;-73
2022/05/18 10:41:27;;;;;;;;;;;26.80;93.40;;;;;;4995880;28;20027;-71
2022/05/18 10:44:06;;;;;;;;;;;27.00;93.60;;;;;;4998380;28;19922;-73
2022/05/18 10:46:41;;;;;;;;;;;27.40;93.00;;;;;;5017995;28;19940;-74
2022/05/18 10:49:08;;;;;;;;;;;27.60;92.90;;;;;;5016669;28;19925;-71
2022/05/18 10:51:36;;;;;;;;;;;27.50;92.90;;;;;;5017681;28;19928;-70
2022/05/18 10:54:25;;;;;;;;;;;27.30;92.40;;;;;;5017597;28;19909;-71
2022/05/18 10:56:52;;;;;;;;;;;27.20;93.10;;;;;;5008640;28;20410;-71
2022/05/18 10:59:35;;;;;;;;;;;27.00;92.70;;;;;;5002220;28;19977;-72
2022/05/18 11:02:13;;;;;;;;;;;27.40;93.10;;;;;;5017668;28;19920;-72
2022/05/18 11:04:58;;;;;;;;;;;27.50;93.40;;;;;;5017440;28;19925;-71
2022/05/18 11:07:25;;;;;;;;;;;27.20;93.00;;;;;;5016374;28;20360;-71
2022/05/18 11:10:10;;;;;;;;;;;27.10;92.80;;;;;;5016532;28;20015;-74
2022/05/18 11:12:54;;;;;;;;;;;27.10;93.30;;;;;;5003820;28;19981;-71
2022/05/18 11:15:34;;;;;;;;;;;27.00;93.30;;;;;;5000714;28;19926;-71
2022/05/18 11:18:12;;;;;;;;;;;26.70;93.20;;;;;;5000970;28;20377;-70
2022/05/18 11:20:50;;;;;;;;;;;26.70;93.50;;;;;;5005197;28;20431;-71
2022/05/18 11:23:21;;;;;;;;;;;26.80;93.70;;;;;;5004000;28;19926;-73
2022/05/18 11:25:50;;;;;;;;;;;26.60;92.90;;;;;;5004927;28;19925;-72
2022/05/18 11:28:23;;;;;;;;;;;26.50;93.30;;;;;;5034730;28;19926;-73
2022/05/18 11:31:05;;;;;;;;;;;26.10;93.70;;;;;;5003314;28;19971;-72
2022/05/18 11:34:03;;;;;;;;;;;26.40;94.10;;;;;;5004499;28;20347;-72
2022/05/18 11:36:55;;;;;;;;;;;27.10;93.50;;;;;;5005574;28;20035;-71
2022/05/18 11:39:37;;;;;;;;;;;27.40;93.60;;;;;;5005305;28;19933;-73
2022/05/18 11:42:12;;;;;;;;;;;27.70;93.30;;;;;;5035552;28;19926;-73
2022/05/18 11:44:43;;;;;;;;;;;28.80;93.20;;;;;;5564958;23;19980;-72
2022/05/18 11:47:21;;;;;;;;;;;28.70;92.60;;;;;;5004374;28;20012;-73
2022/05/18 11:49:53;;;;;;;;;;;28.70;91.60;;;;;;5005091;28;19949;-72
2022/05/18 11:52:35;;;;;;;;;;;28.50;92.40;;;;;;5002321;28;19940;-72
2022/05/18 11:55:06;;;;;;;;;;;28.40;92.20;;;;;;4994774;28;19930;-72
2022/05/18 11:57:35;;;;;;;;;;;28.30;91.50;;;;;;4994668;28;20008;-72
2022/05/18 12:00:07;;;;;;;;;;;27.50;92.20;;;;;;4996044;28;19930;-72
2022/05/18 12:02:48;;;;;;;;;;;27.20;93.00;;;;;;4996536;28;19925;-72
2022/05/18 12:05:26;;;;;;;;;;;26.90;93.50;;;;;;4995256;28;20285;-72
2022/05/18 12:07:57;;;;;;;;;;;26.90;93.50;;;;;;4995616;28;19987;-73
2022/05/18 12:10:29;;;;;;;;;;;26.90;93.80;;;;;;4996937;28;20021;-73
2022/05/18 12:13:02;;;;;;;;;;;26.60;92.70;;;;;;4996799;28;19926;-73
2022/05/18 12:15:43;;;;;;;;;;;26.30;93.50;;;;;;5014732;28;19983;-73
2022/05/18 12:18:13;;;;;;;;;;;26.00;94.20;;;;;;5010137;28;19932;-73
2022/05/18 12:20:47;;;;;;;;;;;25.70;93.70;;;;;;5017878;28;19979;-71
2022/05/18 12:23:18;;;;;;;;;;;25.80;94.40;;;;;;5008705;28;20293;-72
2022/05/18 12:25:54;;;;;;;;;;;26.00;94.00;;;;;;5005218;28;19925;-75
2022/05/18 12:28:19;;;;;;;;;;;26.00;94.20;;;;;;5006420;28;19932;-71
2022/05/18 12:30:49;;;;;;;;;;;25.90;94.10;;;;;;5007000;28;19929;-72
2022/05/18 12:33:16;;;;;;;;;;;25.90;94.30;;;;;;5004211;28;19926;-71
2022/05/18 12:35:44;;;;;;;;;;;25.90;94.50;;;;;;5006103;28;19925;-73
2022/05/18 12:38:24;;;;;;;;;;;26.40;94.20;;;;;;5004311;28;19933;-73
2022/05/18 12:41:00;;;;;;;;;;;25.70;93.70;;;;;;5004809;28;19930;-71
2022/05/18 12:43:38;;;;;;;;;;;25.80;94.20;;;;;;5000860;28;19952;-72
2022/05/18 12:46:08;;;;;;;;;;;25.80;94.80;;;;;;5000548;28;20396;-72
2022/05/18 12:48:38;;;;;;;;;;;25.90;94.00;;;;;;4999966;28;19926;-72
2022/05/18 12:51:10;;;;;;;;;;;25.70;94.00;;;;;;4995614;28;19925;-73
2022/05/18 12:53:55;;;;;;;;;;;26.00;93.50;;;;;;5014306;28;19921;-72
2022/05/18 12:56:26;;;;;;;;;;;25.80;94.40;;;;;;4995513;28;19929;-72
2022/05/18 12:58:56;;;;;;;;;;;25.80;93.50;;;;;;5001601;28;19948;-73
2022/05/18 13:01:22;;;;;;;;;;;25.90;94.30;;;;;;5000952;28;20290;-73
2022/05/18 13:03:51;;;;;;;;;;;25.80;93.60;;;;;;4995026;28;20401;-73
2022/05/18 13:06:21;;;;;;;;;;;25.30;94.40;;;;;;4993299;28;19980;-71
2022/05/18 13:08:55;;;;;;;;;;;25.30;94.00;;;;;;4995891;28;19932;-70
2022/05/18 13:11:20;;;;;;;;;;;25.00;94.60;;;;;;5001578;28;19929;-71
2022/05/18 13:13:55;;;;;;;;;;;24.90;94.60;;;;;;5003110;28;20021;-73
2022/05/18 13:16:38;;;;;;;;;;;24.70;94.60;;;;;;5004744;28;19929;-73
2022/05/18 13:19:13;;;;;;;;;;;24.60;94.80;;;;;;4998490;28;19925;-70
2022/05/18 13:21:46;;;;;;;;;;;24.40;95.60;;;;;;4994647;28;19965;-71
2022/05/18 13:24:13;;;;;;;;;;;24.50;94.70;;;;;;5009700;28;20389;-69
2022/05/18 13:26:44;;;;;;;;;;;24.70;94.50;;;;;;5009113;28;19987;-69
2022/05/18 13:29:12;;;;;;;;;;;24.90;94.30;;;;;;5011536;28;20408;-71
2022/05/18 13:31:38;;;;;;;;;;;25.00;94.60;;;;;;4993948;28;19928;-71
2022/05/18 13:34:07;;;;;;;;;;;25.30;94.30;;;;;;4993817;28;19926;-70
2022/05/18 13:36:34;;;;;;;;;;;25.50;94.50;;;;;;5009956;28;19925;-69
2022/05/18 13:39:07;;;;;;;;;;;25.60;94.20;;;;;;5013427;28;19941;-71
2022/05/18 13:41:33;;;;;;;;;;;25.50;94.30;;;;;;4997833;28;19929;-70
2022/05/18 13:44:02;;;;;;;;;;;25.50;93.80;;;;;;5006057;28;19968;-70
2022/05/18 13:46:28;;;;;;;;;;;25.40;93.80;;;;;;5016407;28;20387;-67
2022/05/18 13:48:58;;;;;;;;;;;25.40;93.30;;;;;;5015737;28;19926;-68
2022/05/18 13:51:27;;;;;;;;;;;25.50;93.30;;;;;;5014476;28;20381;-71
2022/05/18 13:53:58;;;;;;;;;;;25.60;93.10;;;;;;5016703;28;19945;-69
2022/05/18 13:56:26;;;;;;;;;;;25.60;93.20;;;;;;5010676;28;20023;-71
2022/05/18 13:58:54;;;;;;;;;;;25.80;92.80;;;;;;5007601;28;19925;-70
2022/05/18 14:01:21;;;;;;;;;;;25.90;92.40;;;;;;5013653;28;19933;-71
2022/05/18 14:03:47;;;;;;;;;;;25.80;92.60;;;;;;5010792;28;19925;-71
2022/05/18 14:06:17;;;;;;;;;;;26.00;92.30;;;;;;5015140;28;19925;-71
2022/05/18 14:08:47;;;;;;;;;;;26.00;92.40;;;;;;5017332;28;19926;-71
2022/05/18 14:11:14;;;;;;;;;;;26.00;92.90;;;;;;5009167;28;19925;-71
2022/05/18 14:13:40;;;;;;;;;;;25.90;92.30;;;;;;5007259;28;19933;-71
2022/05/18 14:16:06;;;;;;;;;;;25.90;92.70;;;;;;5005689;28;20293;-71
2022/05/18 14:18:35;;;;;;;;;;;25.60;92.40;;;;;;5000405;28;19933;-71
2022/05/18 14:21:06;;;;;;;;;;;25.50;92.50;;;;;;4994977;28;20369;-71
2022/05/18 14:23:35;;;;;;;;;;;25.60;92.50;;;;;;4998571;28;19956;-69
2022/05/18 14:26:02;;;;;;;;;;;25.50;92.60;;;;;;5007933;28;19952;-72
2022/05/18 14:28:34;;;;;;;;;;;25.10;92.90;;;;;;5017712;28;19929;-70
2022/05/18 14:31:01;;;;;;;;;;;24.60;93.20;;;;;;5014646;28;20412;-69
2022/05/18 14:33:35;;;;;;;;;;;24.70;93.00;;;;;;5017156;28;20274;-70
2022/05/18 14:36:09;;;;;;;;;;;24.80;93.60;;;;;;5017426;28;19926;-69
2022/05/18 14:38:37;;;;;;;;;;;24.60;92.40;;;;;;5010109;28;19937;-69
2022/05/18 14:41:04;;;;;;;;;;;24.70;93.10;;;;;;5010596;28;19933;-70
2022/05/18 14:43:30;;;;;;;;;;;24.70;92.70;;;;;;5013162;28;20470;-70
2022/05/18 14:46:04;;;;;;;;;;;24.40;92.70;;;;;;5013394;28;20377;-72
2022/05/18 14:48:34;;;;;;;;;;;24.50;93.00;;;;;;5011813;28;19936;-71
2022/05/18 14:51:11;;;;;;;;;;;24.40;92.90;;;;;;5012174;28;19929;-72
2022/05/18 14:53:41;;;;;;;;;;;24.50;92.60;;;;;;5003515;28;20283;-71
2022/05/18 14:56:08;;;;;;;;;;;24.50;93.10;;;;;;5000228;28;19926;-71
2022/05/18 14:58:38;;;;;;;;;;;24.40;92.60;;;;;;5001359;28;20341;-71
2022/05/18 15:01:05;;;;;;;;;;;24.60;92.90;;;;;;5000324;28;19925;-70
2022/05/18 15:03:33;;;;;;;;;;;24.60;91.50;;;;;;5001629;28;20300;-70
2022/05/18 15:05:58;;;;;;;;;;;24.50;92.90;;;;;;5002387;28;19930;-72
2022/05/18 15:08:33;;;;;;;;;;;24.50;93.30;;;;;;5013634;28;19951;-71
2022/05/18 15:11:01;;;;;;;;;;;24.60;93.30;;;;;;5007943;28;20005;-72
2022/05/18 15:13:31;;;;;;;;;;;24.60;92.50;;;;;;4992617;28;19929;-72
2022/05/18 15:15:57;;;;;;;;;;;24.70;92.00;;;;;;4998949;28;19956;-71
2022/05/18 15:18:28;;;;;;;;;;;24.70;92.00;;;;;;5012128;28;19933;-71
2022/05/18 15:20:55;;;;;;;;;;;24.50;92.40;;;;;;5028227;28;20750;-73
2022/05/18 15:23:39;;;;;;;;;;;24.30;92.40;;;;;;5027108;28;19933;-73
2022/05/18 15:26:22;;;;;;;;;;;24.40;92.50;;;;;;5007211;28;20032;-73
2022/05/18 15:28:58;;;;;;;;;;;24.40;92.80;;;;;;5013227;28;19935;-74
2022/05/18 15:31:24;;;;;;;;;;;24.20;92.80;;;;;;5004618;28;19933;-73
2022/05/18 15:33:58;;;;;;;;;;;24.20;92.70;;;;;;5000990;28;19929;-74
2022/05/18 15:36:24;;;;;;;;;;;24.20;93.00;;;;;;5001509;28;20372;-73
2022/05/18 15:38:50;;;;;;;;;;;24.30;92.90;;;;;;5006138;28;19929;-75